Forside
METAR-TAF:

METAR-TAF

Lufthavne :

Dar es-Salaam, Tanzania

Breddekreds: 06-52S, længdekreds: 039-12E, højde: 55 m

Aktuelle vejr

Denne rapport blev lavet for 1 time og 22 minutter siden, kl. 10:00 UTC
Vind 5 kt fra nordnordøst
Temperatur 30°C
Fugtighed 79%
Tryk 1011 hPa
Sigt 10 km eller mere
Nogle få skyer i en højde af 2000 ft
Brudte skyer i en højde af 2100 ft

METAR: HTDA 171000Z 02005KT 9999 FEW020 BKN021 30/26 Q1011 NOSIG

Tid: 14:22 (11:22 UTC)

Vejrudsigter

Denne rapport blev lavet for 6 timer og 22 minutter siden, kl. 05:00 UTC
Foreløbig gælder fra 17 på 06 UTC til 18 på 12 UTC
Vind kt fra nord
Sigt 10 km eller mere
Spredte skyer i en højde af 1500 ft
Midlertidig
fra 17 på 07 UTC til 17 på 12 UTC
Vind 10 kt fra øst
Brudte skyer i en højde af 1800 ft
Nogle få skyer i en højde af 1900 ft, Cumulonimbus.
regn
ændring
fra 17 på 15 UTC til 17 på 18 UTC
Spredte skyer i en højde af 2400 ft

TAF: HTDA 170500Z 1706/1812 00000KT 9999 SCT015 TEMPO 1707/1712 09010KT RA BKN018 FEW019CB BECMG 1715/1718 SCT024

Vejrobservationer og prognoser fra mere end 4000 lufthavne (METAR og TAF).

De gule og røde prikker repræsenterer de meteorologiske stationer.

Flyt musen over at se navnet på stationen.

Så klik over at se vejr observationer og prognoser.

At skifte det kort: Klik på de grønne knapper med et sort kors for at zoome ind; på den grønne knap med en bindestreg for at zoome ud; eller på de grønne pile for tilstødende kort.


METAR-TAF: